Time;durP1;ratioP1;P1;durP2;ratioP2;P2;SDS_P1;SDS_P2;PMS_P1;PMS_P2;Temp;Humidity;BMP_temperature;BMP_pressure;BME280_temperature;BME280_humidity;BME280_pressure;Samples;Min_cycle;Max_cycle;Signal;HPM_P1;HPM_P2
2022/02/07 00:00:15;;;;;;;7.05;5.20;;;;;;;-0.78;77.38;96336.38;5112414;28;20526;-63
2022/02/07 00:05:17;;;;;;;8.38;6.28;;;;;;;-0.85;77.51;96326.09;5113528;28;20119;-63
2022/02/07 00:07:42;;;;;;;8.98;5.97;;;;;;;-0.79;77.09;96332.09;5113494;28;20030;-63
2022/02/07 00:10:09;;;;;;;9.00;5.28;;;;;;;-0.79;77.23;96328.66;5113479;28;20099;-63
2022/02/07 00:12:34;;;;;;;8.25;5.40;;;;;;;-0.84;77.38;96322.66;5113621;28;20047;-63
2022/02/07 00:15:00;;;;;;;9.48;6.20;;;;;;;-0.83;78.24;96321.78;5113360;28;20031;-63
2022/02/07 00:17:26;;;;;;;7.70;5.53;;;;;;;-0.93;78.03;96321.75;5113320;28;20466;-63
2022/02/07 00:19:51;;;;;;;10.48;6.00;;;;;;;-0.90;78.00;96323.50;5113417;28;20028;-63
2022/02/07 00:22:17;;;;;;;9.35;6.68;;;;;;;-0.84;77.57;96317.50;5113125;28;20036;-63
2022/02/07 00:24:42;;;;;;;8.48;5.20;;;;;;;-0.83;77.49;96312.38;5113467;28;20024;-63
2022/02/07 00:27:08;;;;;;;6.93;5.50;;;;;;;-0.82;76.78;96306.38;5113294;28;20031;-63
2022/02/07 00:29:33;;;;;;;8.20;5.32;;;;;;;-0.93;77.46;96297.78;5113315;28;20011;-63
2022/02/07 00:31:59;;;;;;;16.13;5.15;;;;;;;-0.95;77.72;96302.06;5113277;28;20027;-63
2022/02/07 00:34:24;;;;;;;8.05;5.18;;;;;;;-1.05;77.31;96291.75;5113147;28;20044;-63
2022/02/07 00:36:50;;;;;;;7.07;5.03;;;;;;;-1.06;77.20;96284.91;5113196;28;20081;-63
2022/02/07 00:39:24;;;;;;;10.48;4.95;;;;;;;-1.09;77.09;96282.31;5113214;28;20027;-63
2022/02/07 00:41:57;;;;;;;8.75;6.20;;;;;;;-1.15;77.53;96265.19;5113230;28;20100;-63
2022/02/07 00:44:23;;;;;;;7.82;5.55;;;;;;;-1.11;77.73;96263.50;5113230;28;20415;-63
2022/02/07 00:46:58;;;;;;;6.90;4.82;;;;;;;-1.08;77.44;96266.03;5113288;28;20018;-63
2022/02/07 00:49:24;;;;;;;7.40;5.40;;;;;;;-1.09;77.26;96255.81;5113240;28;20032;-63
2022/02/07 00:51:49;;;;;;;8.73;5.53;;;;;;;-1.21;77.93;96256.63;5115982;28;20034;-63
2022/02/07 00:54:16;;;;;;;9.88;5.45;;;;;;;-1.22;78.00;96252.31;5116921;28;20381;-63
2022/02/07 00:56:42;;;;;;;10.48;5.10;;;;;;;-1.29;78.17;96246.31;5116937;28;20433;-62
2022/02/07 00:59:08;;;;;;;5.65;4.68;;;;;;;-1.25;77.76;96235.19;5117039;28;20059;-63
2022/02/07 01:01:34;;;;;;;6.53;5.25;;;;;;;-1.28;78.22;96236.03;5116888;28;20026;-63
2022/02/07 01:03:59;;;;;;;6.85;4.32;;;;;;;-1.28;77.68;96220.66;5116762;28;20090;-62
2022/02/07 01:06:25;;;;;;;6.85;4.68;;;;;;;-1.34;77.74;96217.19;5116732;28;20066;-63
2022/02/07 01:09:03;;;;;;;10.50;5.65;;;;;;;-1.32;77.64;96211.19;5116807;28;20024;-63
2022/02/07 01:19:26;;;;;;;22.38;16.48;;;;;;;-1.42;78.66;96182.09;5116618;28;20023;-63
2022/02/07 01:51:39;;;;;;;9.57;6.15;;;;;;;-1.18;77.28;96131.66;5115908;27;20046;-61
2022/02/07 01:57:05;;;;;;;10.70;6.57;;;;;;;-1.25;77.11;96127.38;5092473;28;20122;-63
2022/02/07 01:59:31;;;;;;;7.15;5.53;;;;;;;-1.29;77.14;96118.81;5115916;28;20047;-63
2022/02/07 02:01:57;;;;;;;8.85;6.65;;;;;;;-1.30;77.26;96119.66;5115423;28;20477;-61
2022/02/07 02:04:24;;;;;;;9.57;6.47;;;;;;;-1.40;77.57;96108.53;5115614;28;20031;-63
2022/02/07 02:06:49;;;;;;;8.32;6.03;;;;;;;-1.45;79.01;96109.34;5115726;28;20055;-63
2022/02/07 02:09:15;;;;;;;8.35;5.65;;;;;;;-1.53;79.85;96107.63;5115498;28;20058;-63
2022/02/07 02:11:42;;;;;;;8.90;6.05;;;;;;;-1.51;79.42;96106.78;5115549;28;20102;-61
2022/02/07 02:17:09;;;;;;;8.07;5.55;;;;;;;-1.52;78.32;96098.22;5115509;28;20035;-61
2022/02/07 02:36:26;;;;;;;12.63;6.78;;;;;;;-1.67;79.21;96075.94;5115146;28;20034;-62
2022/02/07 02:38:40;;;;;;;10.27;7.18;;;;;;;-1.59;79.02;96076.84;5109202;28;20035;-63
2022/02/07 02:46:50;;;;;;;12.75;7.10;;;;;;;-1.54;79.49;96057.16;5080535;28;20047;-63
2022/02/07 02:49:15;;;;;;;8.93;6.20;;;;;;;-1.60;79.37;96049.44;5114877;28;20081;-62
2022/02/07 02:51:41;;;;;;;7.30;5.63;;;;;;;-1.60;79.12;96052.03;5114699;28;20489;-62
2022/02/07 02:54:07;;;;;;;9.63;5.30;;;;;;;-1.60;78.81;96046.88;5114549;27;20020;-62
2022/02/07 02:56:34;;;;;;;11.30;7.50;;;;;;;-1.59;78.72;96050.31;5114659;28;20027;-62
2022/02/07 02:58:59;;;;;;;21.10;13.90;;;;;;;-1.59;78.63;96050.31;5114676;28;20019;-62
2022/02/07 03:01:28;;;;;;;12.68;8.73;;;;;;;-1.61;78.48;96049.44;5114662;27;20032;-62
2022/02/07 03:03:53;;;;;;;10.50;7.40;;;;;;;-1.62;78.58;96040.91;5114490;28;20023;-63
2022/02/07 03:06:19;;;;;;;9.93;6.80;;;;;;;-1.66;78.67;96037.47;5114450;28;20028;-63
2022/02/07 03:08:45;;;;;;;12.65;7.80;;;;;;;-1.64;79.48;96037.47;5114401;28;20053;-61
2022/02/07 03:18:55;;;;;;;10.02;6.53;;;;;;;-1.74;78.49;96022.94;5114562;28;20086;-63
2022/02/07 03:21:21;;;;;;;9.73;7.07;;;;;;;-1.68;78.84;96023.78;5113996;28;20067;-63
2022/02/07 03:23:47;;;;;;;13.60;9.02;;;;;;;-1.69;78.75;96013.50;5114103;28;20028;-63
2022/02/07 03:26:14;;;;;;;11.73;6.75;;;;;;;-1.72;78.77;96008.41;5114098;28;20019;-63
2022/02/07 03:28:40;;;;;;;9.48;6.03;;;;;;;-1.72;78.13;96009.25;5114039;28;20031;-63
2022/02/07 03:31:07;;;;;;;11.25;8.43;;;;;;;-1.84;78.10;96007.50;5113967;28;20462;-62
2022/02/07 03:33:32;;;;;;;7.88;5.22;;;;;;;-1.90;78.90;96010.03;5113973;28;20063;-61
2022/02/07 03:35:58;;;;;;;13.57;6.53;;;;;;;-1.84;78.82;96007.50;5113981;28;20421;-63
2022/02/07 03:38:24;;;;;;;8.55;5.65;;;;;;;-1.95;79.06;96002.38;5113901;28;20024;-63
2022/02/07 03:40:49;;;;;;;12.00;8.10;;;;;;;-1.87;79.08;96002.38;5113834;28;20023;-61
2022/02/07 03:43:15;;;;;;;15.52;9.05;;;;;;;-1.83;79.63;96003.25;5113842;28;20420;-63
2022/02/07 03:45:40;;;;;;;11.98;8.18;;;;;;;-1.89;79.86;96000.66;5113790;28;20028;-61
2022/02/07 03:48:06;;;;;;;10.75;7.53;;;;;;;-1.87;80.00;96001.53;5113708;28;20026;-61
2022/02/07 03:50:32;;;;;;;8.73;5.03;;;;;;;-1.82;79.62;95992.13;5113838;28;20016;-61
2022/02/07 03:52:57;;;;;;;7.97;5.70;;;;;;;-1.87;78.71;95991.28;5113551;28;20023;-61
2022/02/07 03:55:24;;;;;;;17.13;8.25;;;;;;;-1.97;78.52;95985.25;5113656;28;20027;-63
2022/02/07 03:57:49;;;;;;;13.43;8.45;;;;;;;-1.97;79.21;95988.69;5113621;28;20023;-63
2022/02/07 04:00:16;;;;;;;10.05;6.53;;;;;;;-2.02;79.07;95982.66;5113641;28;20024;-61
2022/02/07 04:02:45;;;;;;;7.97;5.63;;;;;;;-2.05;79.11;95993.78;5095495;28;20355;-61
2022/02/07 04:07:56;;;;;;;12.32;7.20;;;;;;;-2.33;80.53;95983.44;5113802;28;20038;-61
2022/02/07 04:10:23;;;;;;;9.55;7.05;;;;;;;-2.25;81.16;95987.72;5113570;28;20038;-61
2022/02/07 04:12:54;;;;;;;10.18;7.22;;;;;;;-2.20;80.49;95983.50;5113346;28;20027;-60
2022/02/07 04:15:20;;;;;;;12.93;7.28;;;;;;;-2.16;80.29;95972.41;5113692;28;20038;-61
2022/02/07 04:17:53;;;;;;;10.23;6.40;;;;;;;-2.16;80.23;95975.78;5113514;28;20098;-63
2022/02/07 04:20:19;;;;;;;7.97;5.45;;;;;;;-2.12;79.88;95973.25;5113390;28;20019;-61
2022/02/07 04:22:45;;;;;;;10.15;6.20;;;;;;;-2.10;79.63;95971.56;5113143;28;20089;-61
2022/02/07 04:25:11;;;;;;;10.73;5.97;;;;;;;-2.17;79.52;95970.66;5115358;28;20028;-61
2022/02/07 04:27:36;;;;;;;7.80;5.13;;;;;;;-2.18;79.31;95963.84;5117654;28;20089;-63
2022/02/07 04:30:07;;;;;;;6.72;4.75;;;;;;;-2.24;79.36;95951.84;5117497;28;20036;-61
2022/02/07 04:32:33;;;;;;;9.40;6.47;;;;;;;-2.32;80.13;95948.44;5116229;28;20089;-62
2022/02/07 04:34:59;;;;;;;7.97;6.00;;;;;;;-2.40;80.24;95940.72;5117379;28;20040;-61
2022/02/07 04:37:25;;;;;;;11.93;6.80;;;;;;;-2.36;80.19;95942.44;5117517;28;20110;-62
2022/02/07 04:39:52;;;;;;;8.52;5.38;;;;;;;-2.44;80.08;95939.84;5117438;28;20059;-63
2022/02/07 04:42:19;;;;;;;10.13;5.68;;;;;;;-2.33;79.86;95934.75;5117233;27;20054;-61
2022/02/07 04:45:01;;;;;;;8.82;5.13;;;;;;;-2.27;79.72;95949.28;5117176;28;20035;-61
2022/02/07 04:55:48;;;;;;;9.52;5.30;;;;;;;-2.44;80.52;95950.06;5117378;28;20046;-61
2022/02/07 05:01:12;;;;;;;13.40;5.88;;;;;;;-2.42;80.25;95952.66;5085335;27;20499;-62
2022/02/07 05:03:48;;;;;;;13.20;6.72;;;;;;;-2.41;80.12;95962.91;5116924;28;20484;-63
2022/02/07 05:14:27;;;;;;;8.65;5.78;;;;;;;-2.21;79.77;95951.88;5116673;28;20038;-61
2022/02/07 05:16:55;;;;;;;8.05;5.28;;;;;;;-2.18;79.14;95946.75;5116655;28;20366;-63
2022/02/07 05:19:21;;;;;;;12.10;6.15;;;;;;;-2.21;78.94;95936.50;5116568;28;20051;-61
2022/02/07 05:21:48;;;;;;;8.77;6.00;;;;;;;-2.13;78.76;95935.66;5116266;28;20123;-61
2022/02/07 05:24:14;;;;;;;11.13;6.45;;;;;;;-2.16;78.32;95929.66;5115189;28;20408;-63
2022/02/07 05:26:40;;;;;;;8.35;5.65;;;;;;;-2.16;77.78;95939.91;5116489;28;20042;-63
2022/02/07 05:29:07;;;;;;;9.40;6.25;;;;;;;-2.12;77.76;95935.66;5116456;28;20358;-62
2022/02/07 05:31:33;;;;;;;8.43;5.88;;;;;;;-2.16;78.11;95932.22;5116338;28;20458;-62
2022/02/07 05:33:59;;;;;;;9.52;5.30;;;;;;;-2.13;78.33;95928.84;5116280;28;20066;-62
2022/02/07 05:36:25;;;;;;;8.23;5.53;;;;;;;-2.17;77.59;95940.78;5115542;28;20051;-62
2022/02/07 05:38:54;;;;;;;9.68;6.53;;;;;;;-2.17;77.93;95950.16;5116186;28;20062;-62
2022/02/07 05:41:20;;;;;;;8.65;5.85;;;;;;;-2.08;78.22;95949.34;5116209;28;20119;-62
2022/02/07 05:43:48;;;;;;;8.27;5.72;;;;;;;-2.01;77.73;95950.22;5116079;28;20157;-62
2022/02/07 05:46:14;;;;;;;7.72;4.97;;;;;;;-1.97;77.55;95957.91;5116201;28;20027;-62
2022/02/07 05:48:40;;;;;;;8.05;5.75;;;;;;;-1.99;77.76;95956.22;5116112;28;20465;-63
2022/02/07 05:51:06;;;;;;;12.30;5.47;;;;;;;-1.99;78.41;95935.69;5115865;28;20042;-61
2022/02/07 05:53:32;;;;;;;9.57;6.28;;;;;;;-1.93;78.24;95939.13;5115905;28;20385;-61
2022/02/07 05:55:57;;;;;;;9.00;7.00;;;;;;;-1.86;78.28;95942.56;5115921;28;20031;-61
2022/02/07 05:58:24;;;;;;;11.13;7.88;;;;;;;-1.74;78.08;95948.53;5115797;27;20393;-61
2022/02/07 06:00:51;;;;;;;10.02;5.70;;;;;;;-1.65;77.98;95941.69;5115696;28;20078;-63
2022/02/07 06:03:18;;;;;;;9.02;6.35;;;;;;;-1.65;78.24;95940.88;5115843;28;20032;-62
2022/02/07 06:05:45;;;;;;;13.20;7.82;;;;;;;-1.40;80.46;95949.44;5115625;28;20031;-62
2022/02/07 06:08:10;;;;;;;11.88;6.70;;;;;;;-0.24;78.59;95941.41;5115548;28;20024;-62
2022/02/07 06:10:36;;;;;;;8.95;5.72;;;;;;;1.51;74.77;95925.38;5115538;28;20102;-62
2022/02/07 06:13:02;;;;;;;4.88;4.38;;;;;;;3.34;68.32;95922.56;5115460;28;20051;-63
2022/02/07 06:15:27;;;;;;;5.20;3.50;;;;;;;5.12;62.24;95910.84;5115583;28;20023;-63
2022/02/07 06:17:57;;;;;;;4.50;3.40;;;;;;;6.76;55.15;95913.91;5115532;28;20028;-63
2022/02/07 06:20:23;;;;;;;5.82;4.10;;;;;;;7.62;52.80;95908.41;5115345;28;20027;-63
2022/02/07 06:22:48;;;;;;;8.90;4.68;;;;;;;8.39;51.73;95906.38;5115140;28;20436;-63
2022/02/07 06:25:15;;;;;;;5.18;3.60;;;;;;;9.66;46.53;95909.06;5115422;28;20084;-64
2022/02/07 06:27:41;;;;;;;5.63;3.92;;;;;;;10.64;44.18;95908.97;5115320;28;20485;-64
2022/02/07 06:30:07;;;;;;;5.13;4.22;;;;;;;11.63;41.40;95900.56;5115145;28;20027;-65
2022/02/07 06:32:32;;;;;;;6.28;4.15;;;;;;;12.49;40.15;95896.84;5115133;28;20073;-64
2022/02/07 06:34:58;;;;;;;5.75;4.20;;;;;;;13.52;39.01;95898.88;5115078;28;20416;-62
2022/02/07 06:37:24;;;;;;;5.95;4.50;;;;;;;14.21;37.33;95897.34;5115038;28;20020;-65
2022/02/07 06:39:49;;;;;;;4.72;4.28;;;;;;;14.28;37.18;95888.16;5115123;27;20099;-65
2022/02/07 06:42:16;;;;;;;4.32;3.88;;;;;;;13.76;37.86;95897.50;5115040;27;20023;-63
2022/02/07 06:44:42;;;;;;;5.72;4.45;;;;;;;13.31;38.80;95906.25;5114923;27;20012;-63
2022/02/07 06:47:07;;;;;;;4.85;4.38;;;;;;;12.54;40.47;95891.34;5114721;28;20026;-65
2022/02/07 06:49:33;;;;;;;4.97;4.40;;;;;;;12.15;41.62;95888.22;5113763;28;20074;-63
2022/02/07 06:51:59;;;;;;;6.43;5.30;;;;;;;11.70;42.04;95903.69;5114762;28;20015;-63
2022/02/07 06:54:25;;;;;;;7.10;5.45;;;;;;;11.64;42.21;95897.00;5114620;28;20031;-64
2022/02/07 06:56:52;;;;;;;8.00;6.13;;;;;;;11.69;42.20;95899.38;5114725;28;20030;-65
2022/02/07 06:59:19;;;;;;;6.15;4.63;;;;;;;12.11;41.48;95897.19;5114593;28;20457;-62
2022/02/07 07:01:45;;;;;;;5.50;4.70;;;;;;;12.25;40.89;95899.03;5114517;28;20024;-63
2022/02/07 07:04:11;;;;;;;8.45;5.00;;;;;;;11.72;41.32;95896.59;5114473;28;20024;-64
2022/02/07 07:06:38;;;;;;;6.68;5.53;;;;;;;10.78;43.03;95898.69;5114496;28;20069;-63
2022/02/07 07:09:06;;;;;;;9.70;6.53;;;;;;;10.25;44.70;95901.16;5114418;28;20102;-63
2022/02/07 07:11:33;;;;;;;9.55;5.72;;;;;;;9.89;45.37;95894.09;5114409;28;20019;-64
2022/02/07 07:14:13;;;;;;;10.85;5.70;;;;;;;9.27;46.79;95897.66;5114172;28;20431;-62
2022/02/07 07:16:50;;;;;;;9.00;6.50;;;;;;;8.67;48.40;95901.88;5114297;28;20110;-63
2022/02/07 07:19:26;;;;;;;10.60;6.30;;;;;;;8.69;48.94;95903.50;5097317;27;1591632;-62
2022/02/07 07:21:52;;;;;;;8.50;4.75;;;;;;;9.32;48.22;95907.00;5131499;28;20046;-61
2022/02/07 07:24:18;;;;;;;5.65;4.47;;;;;;;10.53;45.71;95901.66;5131428;28;20054;-64
2022/02/07 07:26:45;;;;;;;7.85;5.20;;;;;;;12.07;42.85;95880.78;5131307;28;20026;-64
2022/02/07 07:29:20;;;;;;;7.68;5.50;;;;;;;13.73;39.77;95885.38;5131353;28;20020;-63
2022/02/07 07:31:51;;;;;;;7.45;6.18;;;;;;;15.39;35.44;95870.44;5131200;28;20039;-62
2022/02/07 07:34:18;;;;;;;6.55;5.47;;;;;;;16.44;34.41;95865.91;5131216;28;20034;-65
2022/02/07 07:36:47;;;;;;;8.40;5.50;;;;;;;17.47;32.62;95868.09;5131196;28;20035;-66
2022/02/07 07:39:14;;;;;;;7.13;5.55;;;;;;;18.62;30.82;95861.78;5131092;28;20031;-65
2022/02/07 07:41:41;;;;;;;7.40;5.57;;;;;;;19.67;28.91;95848.75;5131112;28;20370;-65
2022/02/07 07:44:09;;;;;;;7.88;5.82;;;;;;;20.64;27.55;95858.13;5131049;28;20023;-65
2022/02/07 07:46:36;;;;;;;7.05;5.78;;;;;;;21.37;26.76;95854.22;5130915;28;20481;-66
2022/02/07 07:49:13;;;;;;;6.15;5.63;;;;;;;21.26;26.27;95857.91;5130820;28;20027;-65
2022/02/07 08:02:16;;;;;;;11.27;8.95;;;;;;;18.35;32.00;95831.28;5110583;28;20070;-65
2022/02/07 08:04:43;;;;;;;7.40;6.40;;;;;;;18.39;31.97;95829.25;5110209;28;20397;-64
2022/02/07 08:07:17;;;;;;;7.95;6.40;;;;;;;19.35;30.98;95832.94;5110107;28;20059;-63
2022/02/07 08:12:16;;;;;;;11.73;7.10;;;;;;;19.31;30.38;95832.34;5110090;28;20118;-63
2022/02/07 08:14:41;;;;;;;7.95;6.22;;;;;;;19.17;30.63;95825.56;5109871;28;20023;-64
2022/02/07 08:17:08;;;;;;;9.27;7.18;;;;;;;19.61;29.27;95821.91;5109921;28;20028;-64
2022/02/07 08:19:34;;;;;;;14.20;9.70;;;;;;;19.18;28.89;95816.66;5109635;28;20054;-64
2022/02/07 08:22:01;;;;;;;9.63;7.45;;;;;;;18.42;30.31;95813.94;5109688;28;20024;-64
2022/02/07 08:24:27;;;;;;;7.32;6.10;;;;;;;17.65;31.53;95815.59;5109789;28;20035;-63
2022/02/07 08:26:54;;;;;;;7.55;6.32;;;;;;;16.95;32.76;95807.66;5109640;28;20477;-64
2022/02/07 08:29:21;;;;;;;9.15;7.40;;;;;;;17.19;32.57;95805.00;5103976;28;20777;-64
2022/02/07 08:31:46;;;;;;;9.25;6.80;;;;;;;17.05;33.19;95806.84;5096084;28;20078;-63
2022/02/07 08:34:13;;;;;;;8.23;5.82;;;;;;;16.38;33.46;95797.72;5095983;28;20031;-64
2022/02/07 08:36:38;;;;;;;7.30;5.50;;;;;;;15.51;34.68;95794.16;5095985;28;20028;-62
2022/02/07 08:39:04;;;;;;;7.60;5.97;;;;;;;15.04;36.06;95797.31;5095883;28;20505;-63
2022/02/07 08:41:31;;;;;;;8.57;6.25;;;;;;;14.72;36.79;95808.19;5095909;28;20047;-64
2022/02/07 08:43:57;;;;;;;7.63;6.18;;;;;;;14.28;37.81;95801.34;5095892;28;20027;-63
2022/02/07 08:46:23;;;;;;;9.07;6.60;;;;;;;13.65;39.51;95798.28;5095683;28;20024;-63
2022/02/07 08:48:49;;;;;;;9.00;6.68;;;;;;;13.44;39.20;95798.66;5095608;28;20020;-63
2022/02/07 08:51:19;;;;;;;9.00;6.47;;;;;;;13.46;39.50;95791.50;5095557;28;20024;-63
2022/02/07 08:53:46;;;;;;;9.20;5.93;;;;;;;13.30;39.20;95775.84;5095530;28;20108;-64
2022/02/07 08:56:15;;;;;;;7.40;5.80;;;;;;;13.19;40.05;95784.38;5095535;28;20499;-61
2022/02/07 08:58:42;;;;;;;6.20;5.28;;;;;;;12.80;40.73;95784.06;5095396;28;20039;-63
2022/02/07 09:06:28;;;;;;;7.95;5.25;;;;;;;12.32;41.93;95753.56;5095580;28;20113;-61
2022/02/07 09:09:18;;;;;;;7.78;5.10;;;;;;;12.24;41.68;95753.16;5095284;28;20028;-61
2022/02/07 09:11:40;;;;;;;6.00;4.75;;;;;;;11.78;43.02;95746.94;5094483;28;20047;-61
2022/02/07 09:14:11;;;;;;;5.57;4.50;;;;;;;11.52;43.15;95740.50;5095169;28;20020;-61
2022/02/07 09:16:41;;;;;;;5.43;4.85;;;;;;;11.57;43.84;95741.97;5095116;28;20028;-63
2022/02/07 09:19:08;;;;;;;6.88;5.28;;;;;;;11.68;45.28;95737.91;5094795;28;20081;-63
2022/02/07 09:21:35;;;;;;;7.53;4.65;;;;;;;11.95;43.56;95745.16;5095078;28;20389;-63
2022/02/07 09:24:01;;;;;;;7.22;5.18;;;;;;;12.01;44.35;95736.91;5094983;28;20397;-61
2022/02/07 09:26:27;;;;;;;6.57;4.53;;;;;;;12.10;44.69;95736.44;5094907;28;20458;-62
2022/02/07 09:28:53;;;;;;;6.03;4.75;;;;;;;12.27;43.56;95734.63;5094896;28;20042;-61
2022/02/07 09:31:21;;;;;;;6.82;4.00;;;;;;;12.15;42.89;95728.31;5094949;28;20012;-63
2022/02/07 09:33:47;;;;;;;7.63;4.50;;;;;;;12.05;42.42;95721.88;5094724;28;20020;-62
2022/02/07 09:36:15;;;;;;;7.20;4.22;;;;;;;11.92;40.77;95722.56;5094688;28;20024;-61
2022/02/07 09:38:42;;;;;;;6.05;3.55;;;;;;;11.83;40.82;95715.25;5094552;28;20031;-61
2022/02/07 09:41:08;;;;;;;4.78;3.63;;;;;;;11.55;40.47;95703.66;5093663;28;20109;-62
2022/02/07 09:43:41;;;;;;;5.15;3.50;;;;;;;11.28;40.44;95693.78;5094763;28;20052;-62
2022/02/07 09:46:11;;;;;;;4.93;4.13;;;;;;;11.12;41.93;95692.84;5094635;28;20024;-61
2022/02/07 09:48:40;;;;;;;6.10;3.72;;;;;;;10.98;42.67;95680.50;5094495;28;20394;-62
2022/02/07 09:51:10;;;;;;;6.18;4.22;;;;;;;10.69;43.18;95672.41;5094422;28;20489;-62
2022/02/07 09:53:36;;;;;;;5.78;4.07;;;;;;;10.66;44.02;95669.13;5094618;28;20020;-63
2022/02/07 09:56:04;;;;;;;6.13;4.38;;;;;;;10.62;44.46;95673.66;5094455;28;20046;-62
2022/02/07 09:58:39;;;;;;;7.50;3.95;;;;;;;10.77;44.43;95677.25;5094208;28;20027;-62
2022/02/07 10:01:09;;;;;;;4.50;3.90;;;;;;;10.92;45.42;95672.97;5094361;28;20389;-62
2022/02/07 10:03:56;;;;;;;6.57;4.67;;;;;;;11.07;44.74;95673.94;5094301;28;20028;-63
2022/02/07 10:09:41;;;;;;;10.10;4.40;;;;;;;11.32;44.00;95669.97;5094185;28;20036;-61
2022/02/07 10:20:29;;;;;;;8.45;5.28;;;;;;;11.12;45.33;95647.50;5094142;28;20115;-63
2022/02/07 10:40:31;;;;;;;9.80;6.50;;;;;;;11.55;45.80;95605.00;5093650;28;20042;-62
2022/02/07 10:45:49;;;;;;;8.82;5.28;;;;;;;11.58;45.77;95604.81;5093566;28;20042;-62
2022/02/07 10:48:35;;;;;;;7.07;5.00;;;;;;;11.74;45.77;95588.25;5077696;28;20032;-62
2022/02/07 10:51:17;;;;;;;7.55;5.45;;;;;;;11.87;44.83;95585.75;5093362;28;20466;-61
2022/02/07 10:53:58;;;;;;;11.32;5.43;;;;;;;11.95;45.12;95593.16;5093335;28;20025;-63
2022/02/07 10:56:30;;;;;;;7.90;5.35;;;;;;;11.97;44.85;95586.03;5093489;28;20035;-62
2022/02/07 10:59:05;;;;;;;8.50;4.72;;;;;;;11.98;45.33;95579.88;5093209;28;20035;-63
2022/02/07 11:04:39;;;;;;;5.18;4.35;;;;;;;11.50;44.52;95575.63;5093315;28;20028;-62
2022/02/07 11:07:05;;;;;;;7.10;5.00;;;;;;;11.41;44.86;95574.34;5093273;28;20036;-62
2022/02/07 11:12:17;;;;;;;8.60;5.13;;;;;;;11.37;45.01;95564.97;5093269;28;20059;-63
2022/02/07 11:15:11;;;;;;;5.18;4.30;;;;;;;11.19;45.41;95559.00;5093184;28;20028;-63
2022/02/07 11:26:02;;;;;;;7.78;4.50;;;;;;;11.18;44.96;95539.00;5093137;28;20025;-62
2022/02/07 11:28:37;;;;;;;6.32;4.47;;;;;;;11.18;44.13;95521.53;5093124;28;20424;-62
2022/02/07 11:31:05;;;;;;;6.82;4.30;;;;;;;11.17;45.13;95519.81;5093026;28;20466;-63
2022/02/07 11:33:54;;;;;;;4.82;4.10;;;;;;;11.28;44.93;95503.53;5093001;28;20424;-63
2022/02/07 11:36:34;;;;;;;8.40;4.65;;;;;;;11.28;45.57;95505.28;5092988;28;20035;-62
2022/02/07 11:39:07;;;;;;;7.20;4.40;;;;;;;11.22;45.16;95503.88;5092711;28;20028;-62
2022/02/07 11:42:00;;;;;;;4.63;3.67;;;;;;;11.20;46.14;95498.72;5092967;28;20428;-63
2022/02/07 11:44:36;;;;;;;6.10;4.40;;;;;;;11.23;45.48;95487.25;5092798;28;20116;-62
2022/02/07 11:47:17;;;;;;;6.03;4.53;;;;;;;11.19;44.37;95470.88;5092814;28;20032;-61
2022/02/07 11:49:48;;;;;;;7.57;4.82;;;;;;;11.30;44.97;95465.03;5092992;28;20028;-63
2022/02/07 11:52:42;;;;;;;5.80;4.60;;;;;;;11.42;44.78;95467.84;5092868;28;20077;-62
2022/02/07 11:55:11;;;;;;;8.05;4.55;;;;;;;11.47;45.31;95464.03;5092729;28;20074;-62
2022/02/07 11:57:40;;;;;;;7.68;4.57;;;;;;;11.56;44.62;95464.44;5092653;28;20024;-62
2022/02/07 12:00:30;;;;;;;6.57;4.40;;;;;;;11.62;45.13;95456.22;5092696;28;20035;-63
2022/02/07 12:03:08;;;;;;;5.93;4.28;;;;;;;11.68;43.47;95453.19;5092728;28;20119;-63
2022/02/07 12:05:46;;;;;;;6.22;4.15;;;;;;;11.62;43.51;95448.34;5095345;28;20020;-62
2022/02/07 12:08:18;;;;;;;6.32;4.45;;;;;;;11.64;43.89;95449.09;5096365;28;20478;-63
2022/02/07 12:11:06;;;;;;;6.00;4.95;;;;;;;11.65;44.06;95442.91;5096600;28;20042;-63
2022/02/07 12:13:38;;;;;;;5.38;4.25;;;;;;;11.74;45.43;95444.16;5095428;28;20039;-62
2022/02/07 12:16:10;;;;;;;6.75;4.45;;;;;;;11.84;44.55;95445.28;5096062;28;20032;-63
2022/02/07 12:18:36;;;;;;;7.50;4.78;;;;;;;11.92;44.07;95443.97;5095922;28;20084;-61
2022/02/07 12:21:14;;;;;;;6.63;4.32;;;;;;;11.85;44.88;95452.19;5095973;28;20106;-62
2022/02/07 12:23:40;;;;;;;6.88;4.13;;;;;;;11.92;43.49;95447.41;5096139;28;20064;-62
2022/02/07 12:26:17;;;;;;;6.10;4.53;;;;;;;11.91;44.02;95442.25;5078202;28;20044;-62
2022/02/07 12:28:47;;;;;;;5.35;4.00;;;;;;;11.82;44.91;95434.03;5096133;28;20097;-61
2022/02/07 12:31:20;;;;;;;5.95;5.00;;;;;;;11.84;44.38;95437.41;5096140;28;20474;-63
2022/02/07 12:34:24;;;;;;;5.95;4.82;;;;;;;11.94;44.09;95436.84;5096006;28;20035;-62
2022/02/07 12:36:52;;;;;;;9.57;4.50;;;;;;;11.96;44.80;95440.22;5044653;28;20127;-62
2022/02/07 12:39:18;;;;;;;6.32;4.18;;;;;;;11.99;44.53;95447.91;5095811;28;20486;-61
2022/02/07 12:41:46;;;;;;;9.55;4.70;;;;;;;11.94;44.45;95444.69;5095879;28;20046;-61
2022/02/07 12:44:19;;;;;;;5.95;4.22;;;;;;;11.92;44.24;95442.16;5095866;28;20032;-63
2022/02/07 12:46:47;;;;;;;5.85;4.30;;;;;;;11.93;44.45;95449.13;5095836;28;20027;-63
2022/02/07 12:49:14;;;;;;;12.02;4.40;;;;;;;11.72;45.07;95448.63;5095718;28;20032;-63
2022/02/07 12:51:46;;;;;;;6.53;4.55;;;;;;;11.60;44.04;95443.19;5095699;28;20444;-62
2022/02/07 12:54:19;;;;;;;7.60;4.28;;;;;;;11.58;44.13;95437.19;5095523;28;20035;-61
2022/02/07 12:56:45;;;;;;;5.40;4.47;;;;;;;11.55;44.68;95441.78;5095576;28;20134;-61
2022/02/07 12:59:15;;;;;;;7.53;3.53;;;;;;;11.51;44.50;95438.50;5095472;28;20031;-62
2022/02/07 13:01:42;;;;;;;6.07;4.40;;;;;;;11.58;44.83;95428.50;5095479;28;20107;-62
2022/02/07 13:04:28;;;;;;;7.88;4.47;;;;;;;11.52;43.84;95421.84;5095623;28;20016;-62
2022/02/07 13:06:56;;;;;;;8.80;4.20;;;;;;;11.47;44.22;95416.88;5094808;28;20190;-62
2022/02/07 13:09:28;;;;;;;5.70;3.72;;;;;;;11.53;44.10;95412.22;5095425;28;20020;-62
2022/02/07 13:14:53;;;;;;;9.00;4.57;;;;;;;11.51;44.13;95404.47;5063796;28;20043;-62
2022/02/07 13:17:23;;;;;;;7.25;4.45;;;;;;;11.43;44.70;95393.59;5094891;28;20028;-63
2022/02/07 13:19:50;;;;;;;5.40;3.83;;;;;;;11.38;44.59;95391.28;5095069;28;20055;-61
2022/02/07 13:22:17;;;;;;;6.82;3.85;;;;;;;11.40;44.54;95383.28;5094998;28;20036;-62
2022/02/07 13:24:45;;;;;;;9.15;3.60;;;;;;;11.33;44.29;95388.06;5094997;28;20076;-61
2022/02/07 13:27:13;;;;;;;5.78;3.80;;;;;;;11.28;44.47;95370.03;5094907;28;20028;-62
2022/02/07 13:29:48;;;;;;;5.25;3.90;;;;;;;11.20;44.69;95361.78;5094841;28;20032;-63
2022/02/07 13:32:19;;;;;;;6.10;3.60;;;;;;;11.09;44.58;95368.50;5094859;28;20069;-62
2022/02/07 13:34:47;;;;;;;6.50;3.60;;;;;;;10.96;45.01;95365.75;5094824;28;20032;-61
2022/02/07 13:37:20;;;;;;;8.55;5.30;;;;;;;10.93;45.90;95367.72;5094644;28;20016;-62
2022/02/07 13:39:51;;;;;;;5.03;4.13;;;;;;;10.83;46.02;95367.38;5094705;28;20032;-61
2022/02/07 13:42:17;;;;;;;5.63;4.22;;;;;;;10.81;46.16;95357.00;5094601;28;20062;-61
2022/02/07 13:44:44;;;;;;;7.93;3.85;;;;;;;10.81;44.92;95346.53;5094715;28;20024;-64
2022/02/07 13:47:11;;;;;;;6.55;3.97;;;;;;;10.72;45.67;95337.47;5094519;28;20540;-64
2022/02/07 13:50:10;;;;;;;8.55;4.82;;;;;;;10.76;45.69;95332.06;5094362;28;20107;-62
2022/02/07 13:52:39;;;;;;;8.73;6.18;;;;;;;10.78;46.01;95332.81;5040109;28;20115;-64
2022/02/07 13:55:22;;;;;;;11.07;8.52;;;;;;;10.81;45.62;95335.25;5094331;28;20382;-62
2022/02/07 13:57:56;;;;;;;12.00;8.85;;;;;;;10.82;45.08;95316.84;5094281;28;20064;-63
2022/02/07 14:00:25;;;;;;;8.70;5.93;;;;;;;10.82;45.36;95332.56;5094447;28;20721;-63
2022/02/07 14:03:12;;;;;;;8.00;5.03;;;;;;;10.84;45.13;95304.50;5094407;28;20012;-63
2022/02/07 14:05:46;;;;;;;8.25;4.68;;;;;;;10.85;45.34;95321.06;5094264;28;20016;-63
2022/02/07 14:08:14;;;;;;;15.05;8.40;;;;;;;10.82;45.86;95319.47;5094185;28;20439;-63
2022/02/07 14:10:43;;;;;;;22.95;9.60;;;;;;;10.79;46.61;95324.03;5094068;28;20583;-63
2022/02/07 14:13:15;;;;;;;20.83;10.82;;;;;;;10.75;46.70;95320.78;5094042;28;20024;-62
2022/02/07 14:15:43;;;;;;;24.83;13.85;;;;;;;10.74;46.58;95316.44;5094071;28;20055;-63
2022/02/07 14:18:11;;;;;;;29.58;15.00;;;;;;;10.72;46.60;95307.88;5093623;28;20382;-62
2022/02/07 14:20:38;;;;;;;26.70;16.45;;;;;;;10.69;46.92;95300.19;5093944;28;20027;-63
2022/02/07 14:23:06;;;;;;;18.52;9.38;;;;;;;10.64;47.12;95297.00;5093868;28;20470;-63
2022/02/07 14:25:32;;;;;;;8.77;5.53;;;;;;;10.59;47.81;95297.25;5094038;28;20099;-63